createdAt,value
2023-04-22T00:01:59.948Z,100.00
2023-04-22T00:04:32.128Z,100.00
2023-04-22T00:07:07.031Z,100.00
2023-04-22T00:09:46.263Z,100.00
2023-04-22T00:12:16.400Z,100.00
2023-04-22T00:14:53.759Z,100.00
2023-04-22T00:17:29.820Z,100.00
2023-04-22T00:19:57.593Z,100.00
2023-04-22T00:22:31.385Z,100.00
2023-04-22T00:24:59.092Z,100.00
2023-04-22T00:30:29.597Z,100.00
2023-04-22T00:33:02.095Z,100.00
2023-04-22T00:35:39.252Z,100.00
2023-04-22T00:38:10.658Z,100.00
2023-04-22T00:40:44.300Z,100.00
2023-04-22T00:43:21.878Z,100.00
2023-04-22T00:45:56.530Z,100.00
2023-04-22T00:48:28.960Z,100.00
2023-04-22T00:51:03.547Z,100.00
2023-04-22T00:53:34.280Z,100.00
2023-04-22T00:56:05.347Z,100.00
2023-04-22T01:01:19.174Z,100.00
2023-04-22T01:04:06.295Z,100.00
2023-04-22T01:06:44.042Z,100.00
2023-04-22T01:09:19.330Z,100.00
2023-04-22T01:11:50.437Z,100.00
2023-04-22T01:14:25.952Z,100.00
2023-04-22T01:16:58.426Z,100.00
2023-04-22T01:19:41.610Z,100.00
2023-04-22T01:22:20.234Z,100.00
2023-04-22T01:24:55.176Z,100.00
2023-04-22T01:27:32.678Z,100.00
2023-04-22T01:30:02.310Z,100.00
2023-04-22T01:32:34.158Z,100.00
2023-04-22T01:35:08.949Z,100.00
2023-04-22T01:40:30.385Z,100.00
2023-04-22T01:43:11.316Z,100.00
2023-04-22T01:45:46.417Z,100.00
2023-04-22T01:48:14.467Z,100.00
2023-04-22T01:50:53.263Z,100.00
2023-04-22T01:53:32.389Z,100.00
2023-04-22T01:56:14.629Z,100.00
2023-04-22T01:58:43.434Z,100.00
2023-04-22T02:01:16.196Z,100.00
2023-04-22T02:03:46.122Z,100.00
2023-04-22T02:06:27.196Z,100.00
2023-04-22T02:08:57.555Z,100.00
2023-04-22T02:11:25.540Z,100.00
2023-04-22T02:13:55.761Z,100.00
2023-04-22T02:16:29.360Z,100.00
2023-04-22T02:19:00.967Z,100.00
2023-04-22T02:21:36.883Z,100.00
2023-04-22T02:24:07.136Z,100.00
2023-04-22T02:26:38.372Z,100.00
2023-04-22T02:29:08.638Z,100.00
2023-04-22T02:31:45.278Z,100.00
2023-04-22T02:34:20.725Z,100.00
2023-04-22T02:36:51.895Z,100.00
2023-04-22T02:39:23.791Z,100.00
2023-04-22T02:41:54.048Z,100.00
2023-04-22T02:44:30.791Z,100.00
2023-04-22T02:47:01.626Z,100.00
2023-04-22T02:49:32.881Z,100.00
2023-04-22T02:52:02.350Z,100.00
2023-04-22T02:54:33.029Z,100.00
2023-04-22T02:57:10.711Z,100.00
2023-04-22T02:59:38.670Z,100.00
2023-04-22T03:02:12.392Z,100.00
2023-04-22T03:05:23.242Z,100.00
2023-04-22T03:10:56.319Z,100.00
2023-04-22T03:13:33.822Z,100.00
2023-04-22T03:16:07.292Z,100.00
2023-04-22T03:18:38.067Z,100.00
2023-04-22T03:21:20.473Z,100.00
2023-04-22T03:24:03.438Z,100.00
2023-04-22T03:26:37.015Z,100.00
2023-04-22T03:29:08.274Z,100.00
2023-04-22T03:31:38.306Z,100.00
2023-04-22T03:34:09.214Z,100.00
2023-04-22T03:36:41.720Z,100.00
2023-04-22T03:39:24.656Z,100.00
2023-04-22T03:41:57.060Z,100.00
2023-04-22T03:44:33.887Z,100.00
2023-04-22T03:47:04.079Z,100.00
2023-04-22T03:49:42.229Z,100.00
2023-04-22T03:52:13.200Z,100.00
2023-04-22T03:54:47.670Z,100.00
2023-04-22T03:57:17.054Z,100.00
2023-04-22T03:59:45.913Z,100.00
2023-04-22T04:02:26.572Z,100.00
2023-04-22T04:05:01.199Z,100.00
2023-04-22T04:07:32.440Z,100.00
2023-04-22T04:10:03.155Z,100.00
2023-04-22T04:12:33.625Z,100.00
2023-04-22T04:15:13.778Z,100.00
2023-04-22T04:17:44.373Z,100.00
2023-04-22T04:20:16.458Z,100.00
2023-04-22T04:22:46.849Z,100.00
2023-04-22T04:25:23.897Z,100.00
2023-04-22T04:28:02.112Z,100.00
2023-04-22T04:30:33.575Z,100.00
2023-04-22T04:33:07.383Z,100.00
2023-04-22T04:35:41.639Z,100.00
2023-04-22T04:38:16.770Z,100.00
2023-04-22T04:40:59.200Z,100.00
2023-04-22T04:43:32.064Z,100.00
2023-04-22T04:46:24.327Z,100.00
2023-04-22T04:49:03.386Z,100.00
2023-04-22T04:51:37.519Z,100.00
2023-04-22T04:54:08.982Z,100.00
2023-04-22T04:56:40.312Z,100.00
2023-04-22T04:59:23.114Z,100.00
2023-04-22T05:02:02.086Z,100.00
2023-04-22T05:04:32.352Z,100.00
2023-04-22T05:07:04.025Z,100.00
2023-04-22T05:12:36.126Z,100.00
2023-04-22T05:15:10.673Z,100.00
2023-04-22T05:17:46.285Z,100.00
2023-04-22T05:22:59.847Z,100.00
2023-04-22T05:25:31.730Z,100.00
2023-04-22T05:28:06.384Z,100.00
2023-04-22T05:30:53.504Z,100.00
2023-04-22T05:33:23.809Z,100.00
2023-04-22T05:35:55.014Z,100.00
2023-04-22T05:38:25.706Z,100.00
2023-04-22T05:41:00.397Z,100.00
2023-04-22T05:43:33.595Z,100.00
2023-04-22T05:46:15.022Z,100.00
2023-04-22T05:55:32.174Z,100.00
2023-04-22T05:58:02.757Z,100.00
2023-04-22T06:00:45.092Z,100.00
2023-04-22T06:03:34.700Z,100.00
2023-04-22T06:06:11.016Z,100.00
2023-04-22T06:08:51.280Z,100.00
2023-04-22T06:11:24.775Z,100.00
2023-04-22T06:14:03.120Z,100.00
2023-04-22T06:16:37.725Z,100.00
2023-04-22T06:19:21.925Z,100.00
2023-04-22T06:21:55.719Z,100.00
2023-04-22T06:24:35.728Z,100.00
2023-04-22T06:27:10.091Z,100.00
2023-04-22T06:29:44.734Z,100.00
2023-04-22T06:32:17.118Z,100.00
2023-04-22T06:34:45.862Z,100.00
2023-04-22T06:37:16.809Z,100.00
2023-04-22T06:39:49.010Z,100.00
2023-04-22T06:42:47.101Z,100.00
2023-04-22T06:45:59.327Z,100.00
2023-04-22T06:48:54.517Z,100.00
2023-04-22T06:51:46.387Z,100.00
2023-04-22T06:54:22.523Z,100.00
2023-04-22T06:56:54.760Z,100.00
2023-04-22T06:59:25.378Z,100.00
2023-04-22T07:04:43.368Z,100.00
2023-04-22T07:07:19.516Z,100.00
2023-04-22T07:09:47.725Z,100.00
2023-04-22T07:12:17.625Z,100.00
2023-04-22T07:15:02.609Z,100.00
2023-04-22T07:17:38.646Z,100.00
2023-04-22T07:20:15.801Z,100.00
2023-04-22T07:22:54.472Z,100.00
2023-04-22T07:25:28.031Z,100.00
2023-04-22T07:28:01.934Z,100.00
2023-04-22T07:30:36.398Z,100.00
2023-04-22T07:33:06.460Z,100.00
2023-04-22T07:35:37.066Z,100.00
2023-04-22T07:38:12.122Z,100.00
2023-04-22T07:40:46.243Z,100.00
2023-04-22T07:43:20.442Z,100.00
2023-04-22T07:45:55.319Z,100.00
2023-04-22T07:48:23.034Z,100.00
2023-04-22T07:50:50.895Z,100.00
2023-04-22T07:53:34.979Z,100.00
2023-04-22T07:56:07.810Z,100.00
2023-04-22T07:58:38.265Z,100.00
2023-04-22T08:01:09.366Z,100.00
2023-04-22T08:03:41.022Z,100.00
2023-04-22T08:06:14.124Z,100.00
2023-04-22T08:08:47.910Z,100.00
2023-04-22T08:11:18.255Z,100.00
2023-04-22T08:13:48.771Z,100.00
2023-04-22T08:16:24.947Z,100.00
2023-04-22T08:19:00.118Z,100.00
2023-04-22T08:21:35.404Z,100.00
2023-04-22T08:24:24.602Z,100.00
2023-04-22T08:27:02.217Z,100.00
2023-04-22T08:29:36.919Z,100.00
2023-04-22T08:32:14.475Z,100.00
2023-04-22T08:34:46.601Z,100.00
2023-04-22T08:37:15.344Z,100.00
2023-04-22T08:39:48.808Z,100.00
2023-04-22T08:42:19.088Z,100.00
2023-04-22T08:44:50.705Z,100.00
2023-04-22T08:47:23.550Z,100.00
2023-04-22T08:50:03.625Z,100.00
2023-04-22T08:52:32.350Z,100.00
2023-04-22T08:57:44.143Z,100.00
2023-04-22T09:00:15.010Z,100.00
2023-04-22T09:03:01.844Z,100.00
2023-04-22T09:05:39.445Z,100.00
2023-04-22T09:08:11.946Z,100.00
2023-04-22T09:10:44.386Z,100.00
2023-04-22T09:13:16.662Z,100.00
2023-04-22T09:15:54.222Z,100.00
2023-04-22T09:18:28.875Z,100.00
2023-04-22T09:21:00.178Z,100.00
2023-04-22T09:23:29.650Z,100.00
2023-04-22T09:26:07.575Z,100.00
2023-04-22T09:28:48.385Z,100.00
2023-04-22T09:31:22.162Z,100.00
2023-04-22T09:34:00.581Z,100.00
2023-04-22T09:36:32.782Z,100.00
2023-04-22T09:39:06.607Z,100.00
2023-04-22T09:41:53.431Z,100.00
2023-04-22T09:44:23.499Z,100.00
2023-04-22T09:49:43.511Z,100.00
2023-04-22T09:52:12.591Z,100.00
2023-04-22T09:54:44.468Z,100.00
2023-04-22T09:57:18.128Z,100.00
2023-04-22T09:59:48.542Z,100.00
2023-04-22T10:02:21.458Z,100.00
2023-04-22T10:05:05.505Z,100.00
2023-04-22T10:07:43.705Z,100.00
2023-04-22T10:10:14.597Z,100.00
2023-04-22T10:12:49.421Z,100.00
2023-04-22T10:15:18.142Z,100.00
2023-04-22T10:17:50.859Z,100.00
2023-04-22T10:20:29.313Z,100.00
2023-04-22T10:23:01.720Z,100.00
2023-04-22T10:25:32.368Z,100.00
2023-04-22T10:28:10.984Z,100.00
2023-04-22T10:30:43.814Z,100.00
2023-04-22T10:33:35.860Z,100.00
2023-04-22T10:36:17.541Z,100.00
2023-04-22T10:41:39.818Z,100.00
2023-04-22T10:44:11.615Z,100.00
2023-04-22T10:46:57.581Z,100.00
2023-04-22T10:49:30.828Z,100.00
2023-04-22T10:52:04.171Z,100.00
2023-04-22T10:54:49.537Z,100.00
2023-04-22T10:57:26.087Z,100.00
2023-04-22T11:00:02.634Z,100.00
2023-04-22T11:02:33.297Z,100.00
2023-04-22T11:05:27.961Z,100.00
2023-04-22T11:08:02.661Z,100.00
2023-04-22T11:10:45.712Z,100.00
2023-04-22T11:13:33.037Z,100.00
2023-04-22T11:16:04.619Z,100.00
2023-04-22T11:18:42.280Z,100.00
2023-04-22T11:21:16.720Z,100.00
2023-04-22T11:24:02.902Z,100.00
2023-04-22T11:26:46.957Z,100.00
2023-04-22T11:29:20.910Z,100.00
2023-04-22T11:32:00.434Z,91.65
2023-04-22T11:34:38.000Z,89.09
2023-04-22T11:37:11.929Z,100.00
2023-04-22T11:39:56.245Z,96.23
2023-04-22T11:42:39.057Z,100.00
2023-04-22T11:45:22.236Z,100.00
2023-04-22T11:47:51.461Z,100.00
2023-04-22T11:50:25.338Z,100.00
2023-04-22T11:53:26.974Z,100.00
2023-04-22T11:58:45.671Z,100.00
2023-04-22T12:01:14.869Z,100.00
2023-04-22T12:03:44.079Z,100.00
2023-04-22T12:06:12.709Z,86.66
2023-04-22T12:08:52.069Z,90.63
2023-04-22T12:11:22.953Z,89.12
2023-04-22T12:13:59.029Z,79.53
2023-04-22T12:16:30.957Z,100.00
2023-04-22T12:19:05.612Z,95.84
2023-04-22T12:21:41.425Z,93.56
2023-04-22T12:24:11.491Z,100.00
2023-04-22T12:26:42.691Z,100.00
2023-04-22T12:29:19.252Z,85.14
2023-04-22T12:31:49.044Z,97.91
2023-04-22T12:34:18.306Z,98.15
2023-04-22T12:36:46.300Z,92.60
2023-04-22T12:39:24.345Z,100.00
2023-04-22T12:41:54.838Z,73.70
2023-04-22T12:44:27.246Z,66.67
2023-04-22T12:47:18.585Z,82.07
2023-04-22T12:49:48.092Z,72.53
2023-04-22T12:52:19.434Z,68.59
2023-04-22T12:54:57.702Z,68.66
2023-04-22T12:57:35.179Z,54.09
2023-04-22T13:00:07.125Z,56.04
2023-04-22T13:02:40.700Z,63.81
2023-04-22T13:05:15.798Z,54.73
2023-04-22T13:07:50.729Z,48.95
2023-04-22T13:10:35.844Z,52.07
2023-04-22T13:13:18.574Z,51.06
2023-04-22T13:16:00.972Z,46.58
2023-04-22T13:18:29.363Z,46.03
2023-04-22T13:21:03.114Z,49.52
2023-04-22T13:23:47.730Z,44.72
2023-04-22T13:26:15.694Z,35.52
2023-04-22T13:28:43.405Z,31.20
2023-04-22T13:31:14.201Z,30.61
2023-04-22T13:33:47.847Z,31.08
2023-04-22T13:36:17.987Z,35.76
2023-04-22T13:38:48.203Z,34.39
2023-04-22T13:41:26.413Z,32.43
2023-04-22T13:43:57.103Z,30.29
2023-04-22T13:46:29.753Z,29.50
2023-04-22T13:49:03.806Z,28.09
2023-04-22T13:51:35.333Z,29.30
2023-04-22T13:54:08.601Z,29.11
2023-04-22T13:56:46.035Z,33.16
2023-04-22T13:59:16.555Z,31.13
2023-04-22T14:01:50.372Z,33.41
2023-04-22T14:04:28.143Z,34.36
2023-04-22T14:06:59.148Z,34.61
2023-04-22T14:09:30.666Z,35.73
2023-04-22T14:12:00.687Z,37.64
2023-04-22T14:14:39.961Z,39.53
2023-04-22T14:19:53.457Z,40.11
2023-04-22T14:22:25.840Z,37.45
2023-04-22T14:24:56.473Z,41.77
2023-04-22T14:30:19.881Z,29.87
2023-04-22T14:32:49.747Z,28.49
2023-04-22T14:35:19.311Z,28.88
2023-04-22T14:37:47.776Z,28.25
2023-04-22T14:43:06.781Z,27.97
2023-04-22T14:45:38.882Z,28.65
2023-04-22T14:48:11.244Z,28.25
2023-04-22T14:53:34.683Z,27.39
2023-04-22T14:56:15.046Z,27.50
2023-04-22T14:58:46.345Z,29.15
2023-04-22T15:01:18.784Z,29.35
2023-04-22T15:03:59.637Z,27.70
2023-04-22T15:06:28.331Z,29.38
2023-04-22T15:08:59.968Z,31.20
2023-04-22T15:11:49.164Z,33.36
2023-04-22T15:17:01.124Z,36.48
2023-04-22T15:19:35.545Z,35.84
2023-04-22T15:22:08.940Z,35.41
2023-04-22T15:24:46.959Z,35.54
2023-04-22T15:27:18.520Z,34.95
2023-04-22T15:29:49.589Z,33.60
2023-04-22T15:32:17.316Z,34.09
2023-04-22T15:34:50.306Z,35.37
2023-04-22T15:37:24.540Z,34.90
2023-04-22T15:39:56.598Z,35.89
2023-04-22T15:42:29.258Z,35.40
2023-04-22T15:45:03.501Z,35.97
2023-04-22T15:47:34.460Z,33.54
2023-04-22T15:50:13.018Z,33.69
2023-04-22T15:52:45.686Z,33.36
2023-04-22T15:55:20.341Z,33.53
2023-04-22T15:58:04.257Z,34.28
2023-04-22T16:00:37.795Z,34.99
2023-04-22T16:03:08.181Z,33.18
2023-04-22T16:05:42.788Z,33.70
2023-04-22T16:08:13.860Z,32.64
2023-04-22T16:10:54.741Z,33.30
2023-04-22T16:13:29.531Z,34.82
2023-04-22T16:16:10.447Z,34.77
2023-04-22T16:18:44.055Z,34.48
2023-04-22T16:21:14.375Z,37.11
2023-04-22T16:23:51.860Z,39.71
2023-04-22T16:26:40.822Z,42.96
2023-04-22T16:29:10.879Z,42.99
2023-04-22T16:31:50.997Z,45.02
2023-04-22T16:34:18.709Z,46.21
2023-04-22T16:36:46.406Z,50.49
2023-04-22T16:39:22.554Z,50.30
2023-04-22T16:41:53.314Z,50.87
2023-04-22T16:44:24.993Z,52.11
2023-04-22T16:46:58.380Z,54.40
2023-04-22T16:49:35.866Z,57.12
2023-04-22T16:52:09.874Z,58.05
2023-04-22T16:54:43.624Z,59.18
2023-04-22T16:57:15.151Z,62.44
2023-04-22T16:59:45.165Z,66.15
2023-04-22T17:02:18.840Z,66.67
2023-04-22T17:04:47.758Z,67.94
2023-04-22T17:07:18.092Z,71.17
2023-04-22T17:10:01.622Z,75.94
2023-04-22T17:12:31.552Z,80.54
2023-04-22T17:15:01.551Z,80.96
2023-04-22T17:17:33.020Z,85.77
2023-04-22T17:20:14.498Z,88.02
2023-04-22T17:22:49.047Z,92.72
2023-04-22T17:25:19.652Z,97.04
2023-04-22T17:27:47.545Z,98.15
2023-04-22T17:30:16.905Z,100.00
2023-04-22T17:32:44.900Z,100.00
2023-04-22T17:35:13.055Z,100.00
2023-04-22T17:37:45.388Z,100.00
2023-04-22T17:40:16.382Z,100.00
2023-04-22T17:42:55.836Z,100.00
2023-04-22T17:45:26.284Z,100.00
2023-04-22T17:47:58.374Z,100.00
2023-04-22T17:50:31.619Z,100.00
2023-04-22T17:53:11.001Z,100.00
2023-04-22T17:55:41.535Z,100.00
2023-04-22T17:58:14.347Z,100.00
2023-04-22T18:00:59.208Z,100.00
2023-04-22T18:03:28.789Z,100.00
2023-04-22T18:06:09.075Z,100.00
2023-04-22T18:08:46.349Z,100.00
2023-04-22T18:11:15.759Z,100.00
2023-04-22T18:13:47.137Z,100.00
2023-04-22T18:16:20.689Z,100.00
2023-04-22T18:18:54.740Z,100.00
2023-04-22T18:21:36.119Z,100.00
2023-04-22T18:24:08.395Z,100.00
2023-04-22T18:26:40.007Z,100.00
2023-04-22T18:29:09.880Z,100.00
2023-04-22T18:31:43.953Z,100.00
2023-04-22T18:34:15.830Z,100.00
2023-04-22T18:36:52.630Z,100.00
2023-04-22T18:39:27.897Z,100.00
2023-04-22T18:42:13.467Z,100.00
2023-04-22T18:44:45.845Z,100.00
2023-04-22T18:47:14.293Z,100.00
2023-04-22T18:49:52.813Z,100.00
2023-04-22T18:52:29.068Z,100.00
2023-04-22T18:55:02.782Z,100.00
2023-04-22T18:57:37.053Z,100.00
2023-04-22T19:00:08.343Z,100.00
2023-04-22T19:02:45.026Z,100.00
2023-04-22T19:05:18.623Z,100.00
2023-04-22T19:07:47.705Z,100.00
2023-04-22T19:10:20.947Z,100.00
2023-04-22T19:13:00.045Z,100.00
2023-04-22T19:15:29.202Z,100.00
2023-04-22T19:18:06.835Z,100.00
2023-04-22T19:20:37.257Z,100.00
2023-04-22T19:23:15.034Z,100.00
2023-04-22T19:25:45.516Z,100.00
2023-04-22T19:28:17.474Z,100.00
2023-04-22T19:30:47.810Z,100.00
2023-04-22T19:33:19.951Z,100.00
2023-04-22T19:35:50.626Z,100.00
2023-04-22T19:38:19.386Z,100.00
2023-04-22T19:43:34.620Z,100.00
2023-04-22T19:46:12.069Z,100.00
2023-04-22T19:48:44.235Z,100.00
2023-04-22T19:51:15.001Z,100.00
2023-04-22T19:53:47.678Z,100.00
2023-04-22T19:56:17.178Z,100.00
2023-04-22T20:01:40.633Z,100.00
2023-04-22T20:04:11.203Z,100.00
2023-04-22T20:07:00.736Z,100.00
2023-04-22T20:09:39.758Z,100.00
2023-04-22T20:12:20.640Z,100.00
2023-04-22T20:14:52.804Z,100.00
2023-04-22T20:17:21.090Z,100.00
2023-04-22T20:22:37.567Z,100.00
2023-04-22T20:25:14.945Z,100.00
2023-04-22T20:27:47.496Z,100.00
2023-04-22T20:30:16.661Z,100.00
2023-04-22T20:32:46.857Z,100.00
2023-04-22T20:35:17.516Z,100.00
2023-04-22T20:37:53.437Z,100.00
2023-04-22T20:40:23.365Z,100.00
2023-04-22T20:42:55.448Z,100.00
2023-04-22T20:45:25.238Z,100.00
2023-04-22T20:48:01.125Z,100.00
2023-04-22T20:50:34.419Z,100.00
2023-04-22T20:53:09.122Z,100.00
2023-04-22T20:55:42.940Z,100.00
2023-04-22T20:58:17.069Z,100.00
2023-04-22T21:00:45.030Z,100.00
2023-04-22T21:03:15.823Z,100.00
2023-04-22T21:05:46.689Z,100.00
2023-04-22T21:08:24.479Z,100.00
2023-04-22T21:11:03.608Z,100.00
2023-04-22T21:13:35.103Z,100.00
2023-04-22T21:16:17.778Z,100.00
2023-04-22T21:18:53.754Z,100.00
2023-04-22T21:21:33.346Z,100.00
2023-04-22T21:24:14.194Z,100.00
2023-04-22T21:26:44.575Z,100.00
2023-04-22T21:29:17.347Z,100.00
2023-04-22T21:31:49.269Z,100.00
2023-04-22T21:34:34.060Z,100.00
2023-04-22T21:37:07.267Z,100.00
2023-04-22T21:39:41.137Z,100.00
2023-04-22T21:42:18.109Z,100.00
2023-04-22T21:45:04.773Z,100.00
2023-04-22T21:47:37.971Z,100.00
2023-04-22T21:50:16.083Z,100.00
2023-04-22T21:52:44.450Z,100.00
2023-04-22T21:55:29.730Z,100.00
2023-04-22T21:58:08.246Z,100.00
2023-04-22T22:00:42.722Z,100.00
2023-04-22T22:03:16.635Z,100.00
2023-04-22T22:05:49.925Z,100.00
2023-04-22T22:08:18.492Z,100.00
2023-04-22T22:10:49.362Z,100.00
2023-04-22T22:13:19.500Z,100.00
2023-04-22T22:15:56.094Z,100.00
2023-04-22T22:18:26.349Z,100.00
2023-04-22T22:21:04.276Z,100.00
2023-04-22T22:23:34.813Z,100.00
2023-04-22T22:26:06.366Z,100.00
2023-04-22T22:28:38.580Z,100.00
2023-04-22T22:31:09.116Z,100.00
2023-04-22T22:33:45.731Z,100.00
2023-04-22T22:36:22.098Z,100.00
2023-04-22T22:39:08.196Z,100.00
2023-04-22T22:41:38.576Z,100.00
2023-04-22T22:44:12.114Z,100.00
2023-04-22T22:46:45.703Z,100.00
2023-04-22T22:49:17.231Z,100.00
2023-04-22T22:51:47.026Z,100.00
2023-04-22T22:54:20.779Z,100.00
2023-04-22T22:56:48.717Z,100.00
2023-04-22T22:59:25.054Z,100.00
2023-04-22T23:02:11.902Z,100.00
2023-04-22T23:04:45.816Z,100.00
2023-04-22T23:07:30.432Z,100.00
2023-04-22T23:09:58.387Z,100.00
2023-04-22T23:12:27.376Z,100.00
2023-04-22T23:14:56.271Z,100.00
2023-04-22T23:17:29.476Z,100.00
2023-04-22T23:20:02.215Z,100.00
2023-04-22T23:22:32.321Z,100.00
2023-04-22T23:25:09.930Z,100.00
2023-04-22T23:27:41.261Z,100.00
2023-04-22T23:33:17.543Z,100.00
2023-04-22T23:36:11.037Z,100.00
2023-04-22T23:38:58.206Z,100.00
2023-04-22T23:41:31.497Z,100.00
2023-04-22T23:44:02.329Z,100.00
2023-04-22T23:46:32.417Z,100.00
2023-04-22T23:49:02.792Z,100.00
2023-04-22T23:51:48.416Z,100.00
2023-04-22T23:57:31.002Z,100.00
